createdAt,value
2018-09-13T01:08:18.715Z,3.85
2018-09-13T01:10:59.179Z,5.80
2018-09-13T01:13:38.764Z,3.93
2018-09-13T01:16:20.652Z,3.43
2018-09-13T01:18:59.757Z,3.83
2018-09-13T01:21:36.533Z,3.43
2018-09-13T01:24:12.753Z,4.20
2018-09-13T01:26:50.865Z,3.83
2018-09-13T01:29:27.801Z,4.30
2018-09-13T01:32:05.275Z,3.40
2018-09-13T01:34:48.322Z,3.30
2018-09-13T01:37:25.625Z,3.80
2018-09-13T01:40:06.560Z,3.73
2018-09-13T01:42:44.723Z,2.97
2018-09-13T01:45:24.377Z,4.30
2018-09-13T01:48:02.942Z,3.90
2018-09-13T01:50:41.185Z,4.57
2018-09-13T01:53:18.279Z,3.20
2018-09-13T01:55:55.183Z,3.10
2018-09-13T01:58:32.624Z,2.83
2018-09-13T02:01:09.570Z,2.77
2018-09-13T02:03:47.399Z,5.00
2018-09-13T02:06:26.162Z,3.70
2018-09-13T02:09:06.875Z,3.47
2018-09-13T02:11:44.890Z,4.87
2018-09-13T02:14:23.615Z,3.50
2018-09-13T02:17:01.181Z,3.37
2018-09-13T02:19:38.149Z,4.10
2018-09-13T02:22:15.132Z,5.83
2018-09-13T02:24:51.640Z,4.35
2018-09-13T02:27:29.846Z,4.70
2018-09-13T02:30:09.480Z,4.10
2018-09-13T02:32:49.381Z,3.43
2018-09-13T02:35:28.309Z,6.03
2018-09-13T02:38:08.323Z,3.80
2018-09-13T02:40:47.258Z,4.23
2018-09-13T02:43:23.391Z,6.03
2018-09-13T02:45:59.874Z,4.13
2018-09-13T02:48:37.354Z,3.60
2018-09-13T02:51:13.781Z,4.77
2018-09-13T02:53:54.190Z,3.60
2018-09-13T02:56:33.158Z,3.80
2018-09-13T02:59:13.328Z,3.50
2018-09-13T03:01:52.973Z,4.13
2018-09-13T03:04:33.719Z,6.07
2018-09-13T03:07:14.011Z,3.73
2018-09-13T03:09:53.231Z,4.73
2018-09-13T03:12:33.795Z,4.03
2018-09-13T03:15:13.448Z,4.27
2018-09-13T03:18:01.271Z,5.37
2018-09-13T03:20:38.633Z,5.53
2018-09-13T03:23:16.182Z,4.27
2018-09-13T03:25:53.838Z,3.70
2018-09-13T03:28:32.434Z,3.57
2018-09-13T03:31:09.693Z,3.57
2018-09-13T03:33:46.362Z,5.37
2018-09-13T03:36:23.330Z,5.77
2018-09-13T03:39:02.997Z,5.83
2018-09-13T03:41:42.515Z,6.07
2018-09-13T03:44:21.446Z,4.10
2018-09-13T03:46:58.706Z,4.27
2018-09-13T03:49:37.386Z,5.50
2018-09-13T03:52:17.206Z,4.97
2018-09-13T03:54:56.453Z,6.70
2018-09-13T03:57:36.564Z,5.83
2018-09-13T04:00:14.176Z,5.87
2018-09-13T04:02:51.167Z,5.53
2018-09-13T04:05:27.908Z,5.83
2018-09-13T04:08:07.133Z,4.40
2018-09-13T04:10:45.176Z,5.37
2018-09-13T04:13:27.581Z,4.60
2018-09-13T04:16:07.648Z,5.50
2018-09-13T04:18:48.708Z,5.37
2018-09-13T04:21:28.862Z,7.27
2018-09-13T04:24:07.406Z,6.50
2018-09-13T04:26:47.672Z,5.53
2018-09-13T04:29:29.365Z,5.73
2018-09-13T04:32:09.170Z,5.87
2018-09-13T04:34:49.874Z,8.83
2018-09-13T04:37:26.973Z,6.50
2018-09-13T04:40:07.545Z,8.30
2018-09-13T04:42:47.523Z,6.27
2018-09-13T04:45:28.822Z,4.57
2018-09-13T04:48:10.125Z,4.80
2018-09-13T04:50:48.253Z,5.30
2018-09-13T04:53:28.188Z,10.53
2018-09-13T04:56:12.573Z,4.90
2018-09-13T04:58:50.290Z,5.47
2018-09-13T05:01:27.925Z,3.93
2018-09-13T05:04:08.322Z,6.03
2018-09-13T05:06:48.611Z,6.60
2018-09-13T05:09:28.920Z,8.83
2018-09-13T05:12:08.644Z,4.90
2018-09-13T05:14:49.664Z,8.20
2018-09-13T05:17:30.425Z,6.73
2018-09-13T05:20:11.377Z,10.73
2018-09-13T05:22:52.968Z,8.83
2018-09-13T05:25:33.005Z,7.07
2018-09-13T05:28:14.078Z,9.80
2018-09-13T05:30:54.089Z,6.60
2018-09-13T05:33:36.891Z,7.83
2018-09-13T05:36:16.620Z,8.33
2018-09-13T05:38:57.562Z,7.37
2018-09-13T05:41:38.636Z,9.63
2018-09-13T05:44:19.447Z,8.50
2018-09-13T05:46:57.107Z,12.40
2018-09-13T05:49:37.352Z,10.33
2018-09-13T05:52:17.050Z,6.77
2018-09-13T05:54:59.957Z,11.60
2018-09-13T05:57:38.562Z,8.57
2018-09-13T06:00:18.504Z,7.87
2018-09-13T06:03:01.513Z,6.87
2018-09-13T06:05:40.914Z,9.30
2018-09-13T06:08:20.822Z,9.97
2018-09-13T06:11:00.685Z,8.67
2018-09-13T06:13:44.705Z,8.20
2018-09-13T06:16:23.490Z,10.30
2018-09-13T06:19:03.930Z,8.40
2018-09-13T06:21:42.752Z,7.33
2018-09-13T06:24:20.682Z,9.63
2018-09-13T06:27:02.564Z,7.93
2018-09-13T06:29:41.195Z,7.10
2018-09-13T06:32:22.995Z,8.30
2018-09-13T06:35:05.308Z,9.23
2018-09-13T06:37:45.989Z,8.50
2018-09-13T06:40:24.586Z,9.50
2018-09-13T06:43:05.249Z,14.57
2018-09-13T06:45:44.952Z,8.77
2018-09-13T06:48:29.794Z,10.50
2018-09-13T06:51:08.439Z,8.90
2018-09-13T06:53:49.134Z,12.00
2018-09-13T06:56:27.003Z,10.90
2018-09-13T06:59:05.799Z,10.30
2018-09-13T07:01:46.440Z,15.00
2018-09-13T07:04:25.045Z,11.33
2018-09-13T07:07:07.068Z,10.20
2018-09-13T07:09:47.242Z,13.80
2018-09-13T07:12:26.942Z,10.83
2018-09-13T07:15:12.158Z,12.60
2018-09-13T07:17:52.599Z,9.43
2018-09-13T07:20:31.891Z,9.63
2018-09-13T07:23:10.882Z,9.70
2018-09-13T07:25:50.419Z,13.50
2018-09-13T07:28:29.095Z,11.80
2018-09-13T07:31:09.581Z,17.17
2018-09-13T07:33:49.440Z,13.17
2018-09-13T07:36:32.193Z,15.07
2018-09-13T07:39:13.189Z,16.77
2018-09-13T07:41:51.871Z,21.53
2018-09-13T07:44:33.114Z,15.30
2018-09-13T07:47:14.583Z,26.53
2018-09-13T07:49:54.562Z,18.27
2018-09-13T07:52:37.296Z,15.63
2018-09-13T07:55:16.888Z,18.17
2018-09-13T07:57:56.309Z,14.53
2018-09-13T08:00:35.456Z,13.03
2018-09-13T08:03:17.732Z,14.83
2018-09-13T08:06:10.878Z,16.90
2018-09-13T08:08:52.713Z,20.00
2018-09-13T08:11:34.371Z,22.83
2018-09-13T08:14:15.805Z,19.47
2018-09-13T08:16:56.969Z,16.47
2018-09-13T08:19:37.349Z,18.30
2018-09-13T08:22:24.239Z,15.23
2018-09-13T08:25:03.931Z,20.97
2018-09-13T08:27:45.831Z,15.30
2018-09-13T08:30:25.015Z,17.30
2018-09-13T08:33:03.848Z,15.47
2018-09-13T08:35:40.830Z,19.50
2018-09-13T08:38:19.607Z,14.33
2018-09-13T08:41:02.825Z,14.30
2018-09-13T08:43:43.622Z,20.47
2018-09-13T08:46:22.443Z,14.33
2018-09-13T08:49:04.569Z,15.33
2018-09-13T08:51:44.558Z,16.93
2018-09-13T08:54:23.032Z,17.73
2018-09-13T08:57:04.705Z,16.00
2018-09-13T08:59:43.491Z,18.57
2018-09-13T09:02:26.022Z,12.47
2018-09-13T09:05:03.014Z,13.13
2018-09-13T09:07:43.738Z,15.07
2018-09-13T09:10:24.236Z,18.03
2018-09-13T09:13:06.260Z,15.40
2018-09-13T09:15:45.980Z,16.30
2018-09-13T09:18:25.368Z,16.77
2018-09-13T09:21:08.425Z,18.37
2018-09-13T09:23:45.231Z,13.53
2018-09-13T09:26:26.150Z,14.83
2018-09-13T09:29:07.556Z,16.67
2018-09-13T09:31:45.889Z,16.87
2018-09-13T09:34:24.159Z,14.77
2018-09-13T09:37:07.391Z,18.13
2018-09-13T09:39:50.737Z,18.40
2018-09-13T09:42:30.871Z,12.77
2018-09-13T09:45:10.922Z,19.50
2018-09-13T09:47:53.192Z,17.40
2018-09-13T09:50:30.980Z,20.43
2018-09-13T09:53:11.685Z,17.67
2018-09-13T09:55:49.926Z,18.13
2018-09-13T09:58:38.870Z,16.77
2018-09-13T10:01:22.754Z,19.40
2018-09-13T10:06:52.579Z,23.13
2018-09-13T10:09:33.679Z,18.37
2018-09-13T10:12:14.948Z,19.83
2018-09-13T10:15:15.242Z,19.70
2018-09-13T10:18:04.563Z,21.27
2018-09-13T10:20:59.191Z,26.60
2018-09-13T10:23:44.481Z,18.20
2018-09-13T10:26:27.617Z,24.40
2018-09-13T10:29:13.739Z,20.87
2018-09-13T10:32:10.603Z,22.40
2018-09-13T10:35:00.255Z,22.13
2018-09-13T10:37:46.094Z,19.87
2018-09-13T10:40:28.846Z,19.90
2018-09-13T10:43:17.535Z,22.20
2018-09-13T10:46:07.893Z,24.30
2018-09-13T10:48:56.999Z,20.47
2018-09-13T10:51:43.059Z,18.27
2018-09-13T10:54:39.173Z,23.20
2018-09-13T10:57:29.419Z,23.40
2018-09-13T11:00:17.783Z,22.27
2018-09-13T11:03:05.598Z,19.50
2018-09-13T11:05:51.661Z,26.37
2018-09-13T11:08:39.536Z,23.97
2018-09-13T11:11:31.033Z,20.23
2018-09-13T11:14:34.422Z,21.30
2018-09-13T11:17:17.186Z,21.97
2018-09-13T11:20:16.655Z,22.03
2018-09-13T11:23:03.066Z,17.60
2018-09-13T11:28:51.015Z,23.67
2018-09-13T11:31:46.304Z,22.53
2018-09-13T11:34:40.975Z,22.63
2018-09-13T11:37:31.105Z,20.83
2018-09-13T11:40:12.891Z,21.30
2018-09-13T11:42:57.628Z,19.63
2018-09-13T11:45:40.707Z,18.67
2018-09-13T11:48:19.835Z,19.90
2018-09-13T11:54:24.672Z,20.67
2018-09-13T11:57:04.945Z,20.07
2018-09-13T11:59:52.101Z,25.17
2018-09-13T12:02:46.043Z,24.73
2018-09-13T12:05:46.657Z,17.50
2018-09-13T12:08:39.706Z,25.17
2018-09-13T12:11:18.834Z,18.97
2018-09-13T12:14:01.148Z,22.97
2018-09-13T12:16:42.160Z,17.80
2018-09-13T12:19:21.599Z,24.00
2018-09-13T12:22:02.296Z,20.97
2018-09-13T12:24:45.862Z,21.37
2018-09-13T12:27:28.108Z,19.87
2018-09-13T12:30:11.538Z,23.07
2018-09-13T12:32:50.867Z,19.67
2018-09-13T12:35:32.691Z,18.07
2018-09-13T12:38:14.104Z,19.67
2018-09-13T12:40:55.387Z,18.87
2018-09-13T12:43:35.176Z,22.60
2018-09-13T12:46:19.639Z,16.13
2018-09-13T12:49:06.911Z,21.37
2018-09-13T12:52:07.189Z,22.70
2018-09-13T12:54:56.330Z,20.17
2018-09-13T12:57:41.430Z,22.33
2018-09-13T13:00:26.170Z,17.50
2018-09-13T13:03:10.326Z,21.33
2018-09-13T13:05:53.129Z,19.87
2018-09-13T13:08:33.885Z,22.40
2018-09-13T13:11:18.942Z,20.07
2018-09-13T13:13:59.937Z,22.87
2018-09-13T13:16:41.008Z,22.03
2018-09-13T13:19:18.927Z,21.63
2018-09-13T13:21:58.174Z,20.70
2018-09-13T13:24:38.699Z,20.87
2018-09-13T13:27:15.044Z,24.17
2018-09-13T13:29:58.618Z,24.37
2018-09-13T13:32:38.228Z,22.90
2018-09-13T13:35:19.469Z,20.03
2018-09-13T13:37:59.196Z,17.50
2018-09-13T13:40:49.537Z,25.50
2018-09-13T13:43:30.996Z,27.33
2018-09-13T13:46:22.966Z,23.43
2018-09-13T13:49:13.958Z,21.87
2018-09-13T13:52:11.891Z,24.73
2018-09-13T13:58:01.632Z,24.67
2018-09-13T14:00:54.228Z,25.77
2018-09-13T14:03:50.201Z,22.80
2018-09-13T14:06:41.051Z,24.70
2018-09-13T14:09:40.381Z,25.30
2018-09-13T14:12:30.259Z,23.33
2018-09-13T14:15:17.526Z,18.67
2018-09-13T14:18:01.792Z,23.73
2018-09-13T14:20:45.661Z,21.07
2018-09-13T14:23:26.295Z,21.93
2018-09-13T14:26:29.323Z,26.83
2018-09-13T14:32:04.998Z,27.90
2018-09-13T14:34:46.566Z,30.30
2018-09-13T14:37:27.503Z,24.53
2018-09-13T14:40:19.062Z,30.77
2018-09-13T14:43:17.605Z,25.70
2018-09-13T14:45:59.167Z,25.97
2018-09-13T14:48:45.831Z,20.83
2018-09-13T14:51:24.406Z,29.50
2018-09-13T14:54:09.162Z,21.47
2018-09-13T14:57:06.675Z,22.90
2018-09-13T14:59:51.781Z,27.63
2018-09-13T15:02:34.604Z,28.70
2018-09-13T15:05:12.036Z,26.93
2018-09-13T15:07:49.263Z,23.13
2018-09-13T15:10:28.682Z,28.90
2018-09-13T15:13:09.299Z,24.40
2018-09-13T15:15:50.076Z,25.30
2018-09-13T15:18:29.632Z,20.33
2018-09-13T15:21:08.101Z,24.87
2018-09-13T15:23:47.809Z,23.07
2018-09-13T15:26:27.572Z,23.63
2018-09-13T15:29:07.998Z,25.10
2018-09-13T15:31:47.680Z,24.10
2018-09-13T15:34:26.920Z,22.17
2018-09-13T15:37:07.230Z,28.80
2018-09-13T15:39:45.105Z,22.10
2018-09-13T15:42:28.312Z,26.93
2018-09-13T15:45:10.513Z,28.80
2018-09-13T15:47:48.981Z,19.20
2018-09-13T15:50:29.846Z,24.10
2018-09-13T15:53:09.369Z,23.87
2018-09-13T15:55:48.935Z,24.57
2018-09-13T15:58:32.264Z,24.53
2018-09-13T16:01:13.390Z,25.67
2018-09-13T16:03:54.128Z,24.67
2018-09-13T16:06:38.950Z,21.00
2018-09-13T16:09:19.017Z,13.37
2018-09-13T16:11:56.465Z,8.70
2018-09-13T16:14:35.037Z,9.87
2018-09-13T16:17:18.788Z,9.97
2018-09-13T16:19:58.251Z,12.10
2018-09-13T16:22:39.017Z,8.40
2018-09-13T16:25:24.842Z,5.73
2018-09-13T16:28:04.321Z,8.37
2018-09-13T16:30:41.070Z,8.73
2018-09-13T16:33:20.492Z,8.33
2018-09-13T16:36:02.268Z,9.20
2018-09-13T16:38:51.845Z,11.43
2018-09-13T16:41:42.093Z,6.17
2018-09-13T16:44:26.458Z,11.77
2018-09-13T16:49:40.439Z,8.47
2018-09-13T16:52:18.431Z,11.33
2018-09-13T16:55:00.373Z,11.37
2018-09-13T16:57:40.931Z,8.47
2018-09-13T17:00:25.541Z,10.83
2018-09-13T17:03:03.151Z,11.00
2018-09-13T17:05:42.838Z,15.77
2018-09-13T17:08:19.944Z,8.57
2018-09-13T17:11:00.424Z,11.03
2018-09-13T17:13:38.381Z,15.33
2018-09-13T17:16:18.881Z,11.50
2018-09-13T17:18:59.831Z,9.67
2018-09-13T17:21:38.829Z,12.17
2018-09-13T17:24:22.081Z,10.43
2018-09-13T17:27:01.289Z,11.50
2018-09-13T17:29:44.683Z,10.43
2018-09-13T17:35:23.986Z,8.63
2018-09-13T17:38:04.190Z,12.60
2018-09-13T17:40:43.990Z,15.80
2018-09-13T17:43:28.815Z,15.07
2018-09-13T17:46:06.398Z,9.47
2018-09-13T17:48:48.672Z,10.83
2018-09-13T17:51:28.400Z,9.93
2018-09-13T17:54:07.955Z,10.67
2018-09-13T17:56:47.422Z,14.87
2018-09-13T17:59:31.726Z,11.70
2018-09-13T18:02:09.739Z,13.57
2018-09-13T18:04:47.265Z,15.57
2018-09-13T18:07:26.155Z,11.37
2018-09-13T18:10:11.308Z,11.83
2018-09-13T18:12:49.510Z,9.57
2018-09-13T18:15:31.079Z,20.10
2018-09-13T18:18:08.833Z,12.77
2018-09-13T18:20:49.000Z,12.10
2018-09-13T18:23:29.112Z,11.57
2018-09-13T18:26:10.495Z,17.90
2018-09-13T18:28:50.896Z,14.00
2018-09-13T18:31:30.698Z,11.73
2018-09-13T18:34:09.435Z,18.20
2018-09-13T18:36:49.265Z,12.30
2018-09-13T18:39:33.136Z,13.03
2018-09-13T18:42:12.336Z,12.17
2018-09-13T18:44:59.092Z,12.90
2018-09-13T18:47:35.836Z,12.90
2018-09-13T18:50:14.928Z,10.57
2018-09-13T18:52:55.658Z,13.73
2018-09-13T18:55:33.888Z,17.43
2018-09-13T18:58:12.875Z,13.23
2018-09-13T19:00:51.901Z,14.07
2018-09-13T19:03:31.294Z,11.33
2018-09-13T19:06:11.947Z,10.30
2018-09-13T19:08:55.902Z,14.90
2018-09-13T19:11:37.202Z,10.03
2018-09-13T19:14:15.256Z,19.13
2018-09-13T19:16:53.647Z,15.70
2018-09-13T19:19:38.516Z,10.33
2018-09-13T19:22:17.414Z,14.43
2018-09-13T19:24:55.951Z,15.27
2018-09-13T19:27:35.610Z,13.73
2018-09-13T19:30:22.980Z,13.70
2018-09-13T19:33:03.410Z,16.37
2018-09-13T19:35:42.848Z,12.23
2018-09-13T19:38:22.220Z,16.20
2018-09-13T19:41:07.756Z,14.83
2018-09-13T19:44:02.324Z,19.33
2018-09-13T19:46:45.273Z,13.63
2018-09-13T19:49:26.015Z,13.43
2018-09-13T19:52:05.347Z,14.67
2018-09-13T19:54:45.183Z,16.20
2018-09-13T19:57:31.069Z,14.50
2018-09-13T20:00:18.384Z,15.03
2018-09-13T20:02:57.472Z,17.73
2018-09-13T20:05:43.827Z,15.10
2018-09-13T20:08:22.352Z,19.40
2018-09-13T20:11:03.358Z,21.03
2018-09-13T20:13:40.826Z,14.73
2018-09-13T20:16:20.235Z,13.03
2018-09-13T20:18:59.586Z,15.53
2018-09-13T20:21:40.370Z,15.90
2018-09-13T20:24:20.457Z,14.80
2018-09-13T20:27:00.600Z,15.90
2018-09-13T20:29:50.763Z,16.90
2018-09-13T20:32:27.839Z,15.90
2018-09-13T20:35:07.658Z,14.80
2018-09-13T20:37:46.231Z,15.53
2018-09-13T20:40:23.924Z,15.00
2018-09-13T20:43:03.462Z,13.23
2018-09-13T20:45:46.949Z,16.03
2018-09-13T20:48:25.497Z,16.87
2018-09-13T20:51:05.467Z,14.87
2018-09-13T20:53:45.794Z,15.47
2018-09-13T20:56:30.868Z,19.93
2018-09-13T20:59:20.143Z,17.53
2018-09-13T21:02:06.940Z,15.50
2018-09-13T21:04:48.349Z,18.67
2018-09-13T21:07:29.129Z,20.03
2018-09-13T21:10:11.389Z,22.17
2018-09-13T21:12:51.519Z,17.63
2018-09-13T21:15:35.920Z,19.67
2018-09-13T21:18:15.319Z,17.93
2018-09-13T21:20:53.970Z,18.60
2018-09-13T21:23:45.509Z,20.83
2018-09-13T21:26:24.023Z,22.13
2018-09-13T21:29:00.385Z,20.43
2018-09-13T21:31:50.337Z,20.03
2018-09-13T21:34:34.614Z,22.27
2018-09-13T21:37:17.706Z,19.97
2018-09-13T21:39:54.161Z,19.77
2018-09-13T21:42:32.456Z,23.23
2018-09-13T21:45:10.942Z,19.60
2018-09-13T21:47:51.548Z,25.53
2018-09-13T21:50:43.655Z,20.17
2018-09-13T21:56:16.901Z,22.07
2018-09-13T21:58:57.900Z,25.63
2018-09-13T22:01:49.074Z,28.77
2018-09-13T22:04:29.461Z,25.10
2018-09-13T22:07:14.593Z,25.00
2018-09-13T22:09:55.165Z,26.17
2018-09-13T22:12:38.652Z,22.73
2018-09-13T22:15:19.598Z,22.67
2018-09-13T22:17:57.491Z,23.77
2018-09-13T22:20:35.731Z,25.77
2018-09-13T22:23:13.876Z,24.53
2018-09-13T22:25:56.177Z,25.40
2018-09-13T22:28:36.935Z,22.73
2018-09-13T22:31:15.734Z,24.47
2018-09-13T22:33:55.403Z,25.63
2018-09-13T22:36:35.292Z,26.57
2018-09-13T22:39:13.539Z,23.07
2018-09-13T22:41:56.272Z,28.00
2018-09-13T22:44:42.373Z,23.60
2018-09-13T22:47:22.797Z,23.50
2018-09-13T22:49:58.847Z,21.80
2018-09-13T22:52:37.721Z,25.37
2018-09-13T22:55:17.204Z,25.97
2018-09-13T22:57:55.474Z,28.53
2018-09-13T23:00:31.674Z,31.70
2018-09-13T23:03:08.243Z,26.33
2018-09-13T23:05:44.131Z,28.83
2018-09-13T23:08:20.688Z,27.30
2018-09-13T23:10:58.474Z,25.77
2018-09-13T23:13:43.232Z,29.97
2018-09-13T23:16:20.527Z,27.97
2018-09-13T23:18:59.418Z,31.43
2018-09-13T23:21:37.268Z,33.47
2018-09-13T23:24:26.188Z,32.50
2018-09-13T23:27:03.522Z,32.17
2018-09-13T23:29:40.901Z,33.40
2018-09-13T23:32:32.520Z,33.30
2018-09-13T23:35:08.372Z,32.40
2018-09-13T23:37:46.223Z,28.87
2018-09-13T23:40:26.366Z,31.93
2018-09-13T23:43:02.970Z,31.60
2018-09-13T23:45:42.419Z,31.13
2018-09-13T23:48:21.165Z,27.83
2018-09-13T23:50:59.707Z,31.50
2018-09-13T23:53:36.240Z,28.97
2018-09-13T23:56:12.158Z,30.70
2018-09-13T23:58:49.403Z,28.20
